sensor_id;sensor_type;location;lat;lon;timestamp;P1;durP1;ratioP1;P2;durP2;ratioP2
73239;SDS011;61452;40.054;4.110;2022-07-23T00:04:51;9.90;;;7.65;;
73239;SDS011;61452;40.054;4.110;2022-07-23T00:10:00;10.82;;;7.35;;
73239;SDS011;61452;40.054;4.110;2022-07-23T00:15:16;8.27;;;7.00;;
73239;SDS011;61452;40.054;4.110;2022-07-23T00:20:18;8.35;;;6.80;;
73239;SDS011;61452;40.054;4.110;2022-07-23T00:25:21;9.80;;;6.50;;
73239;SDS011;61452;40.054;4.110;2022-07-23T00:30:30;6.38;;;5.70;;
73239;SDS011;61452;40.054;4.110;2022-07-23T00:35:34;9.70;;;6.00;;
73239;SDS011;61452;40.054;4.110;2022-07-23T00:40:38;6.20;;;5.53;;
73239;SDS011;61452;40.054;4.110;2022-07-23T00:45:41;7.13;;;5.50;;
73239;SDS011;61452;40.054;4.110;2022-07-23T00:50:44;10.93;;;6.15;;
73239;SDS011;61452;40.054;4.110;2022-07-23T00:55:46;11.40;;;6.50;;
73239;SDS011;61452;40.054;4.110;2022-07-23T01:00:50;9.60;;;5.93;;
73239;SDS011;61452;40.054;4.110;2022-07-23T01:05:53;8.10;;;6.55;;
73239;SDS011;61452;40.054;4.110;2022-07-23T01:10:55;6.93;;;6.13;;
73239;SDS011;61452;40.054;4.110;2022-07-23T01:15:58;8.23;;;6.60;;
73239;SDS011;61452;40.054;4.110;2022-07-23T01:21:01;9.55;;;6.97;;
73239;SDS011;61452;40.054;4.110;2022-07-23T01:31:06;8.00;;;6.50;;
73239;SDS011;61452;40.054;4.110;2022-07-23T01:36:09;7.68;;;6.30;;
73239;SDS011;61452;40.054;4.110;2022-07-23T01:41:12;9.43;;;5.97;;
73239;SDS011;61452;40.054;4.110;2022-07-23T01:46:15;9.32;;;6.50;;
73239;SDS011;61452;40.054;4.110;2022-07-23T01:51:22;9.60;;;6.10;;
73239;SDS011;61452;40.054;4.110;2022-07-23T01:56:31;8.80;;;6.47;;
73239;SDS011;61452;40.054;4.110;2022-07-23T02:01:33;8.60;;;6.57;;
73239;SDS011;61452;40.054;4.110;2022-07-23T02:06:37;11.43;;;7.97;;
73239;SDS011;61452;40.054;4.110;2022-07-23T02:11:39;7.43;;;6.57;;
73239;SDS011;61452;40.054;4.110;2022-07-23T02:16:42;10.48;;;7.00;;
73239;SDS011;61452;40.054;4.110;2022-07-23T02:21:45;8.40;;;6.65;;
73239;SDS011;61452;40.054;4.110;2022-07-23T02:26:47;8.77;;;6.57;;
73239;SDS011;61452;40.054;4.110;2022-07-23T02:31:50;7.78;;;6.25;;
73239;SDS011;61452;40.054;4.110;2022-07-23T02:36:52;6.82;;;6.13;;
73239;SDS011;61452;40.054;4.110;2022-07-23T02:41:56;6.18;;;5.55;;
73239;SDS011;61452;40.054;4.110;2022-07-23T02:46:59;7.45;;;6.30;;
73239;SDS011;61452;40.054;4.110;2022-07-23T02:52:02;7.47;;;6.07;;
73239;SDS011;61452;40.054;4.110;2022-07-23T02:57:04;9.65;;;6.47;;
73239;SDS011;61452;40.054;4.110;2022-07-23T03:02:07;8.40;;;6.13;;
73239;SDS011;61452;40.054;4.110;2022-07-23T03:07:09;7.28;;;6.07;;
73239;SDS011;61452;40.054;4.110;2022-07-23T03:12:11;8.30;;;6.20;;
73239;SDS011;61452;40.054;4.110;2022-07-23T03:17:15;8.05;;;6.10;;
73239;SDS011;61452;40.054;4.110;2022-07-23T03:22:18;6.95;;;5.72;;
73239;SDS011;61452;40.054;4.110;2022-07-23T03:27:22;8.27;;;5.97;;
73239;SDS011;61452;40.054;4.110;2022-07-23T03:32:26;6.25;;;5.57;;
73239;SDS011;61452;40.054;4.110;2022-07-23T03:37:29;7.78;;;5.70;;
73239;SDS011;61452;40.054;4.110;2022-07-23T03:42:33;8.10;;;5.75;;
73239;SDS011;61452;40.054;4.110;2022-07-23T03:47:36;8.77;;;5.88;;
73239;SDS011;61452;40.054;4.110;2022-07-23T03:52:40;9.07;;;5.85;;
73239;SDS011;61452;40.054;4.110;2022-07-23T03:57:43;7.38;;;6.22;;
73239;SDS011;61452;40.054;4.110;2022-07-23T04:02:45;8.82;;;6.28;;
73239;SDS011;61452;40.054;4.110;2022-07-23T04:07:48;7.55;;;6.05;;
73239;SDS011;61452;40.054;4.110;2022-07-23T04:12:51;7.22;;;6.40;;
73239;SDS011;61452;40.054;4.110;2022-07-23T04:17:54;9.07;;;5.38;;
73239;SDS011;61452;40.054;4.110;2022-07-23T04:23:02;8.68;;;6.65;;
73239;SDS011;61452;40.054;4.110;2022-07-23T04:28:06;8.93;;;6.35;;
73239;SDS011;61452;40.054;4.110;2022-07-23T04:33:09;7.22;;;6.05;;
73239;SDS011;61452;40.054;4.110;2022-07-23T04:38:12;7.68;;;6.53;;
73239;SDS011;61452;40.054;4.110;2022-07-23T04:43:15;6.50;;;5.57;;
73239;SDS011;61452;40.054;4.110;2022-07-23T04:48:20;8.18;;;6.45;;
73239;SDS011;61452;40.054;4.110;2022-07-23T04:53:29;7.80;;;6.40;;
73239;SDS011;61452;40.054;4.110;2022-07-23T04:58:34;11.32;;;7.25;;
73239;SDS011;61452;40.054;4.110;2022-07-23T05:03:37;9.10;;;6.40;;
73239;SDS011;61452;40.054;4.110;2022-07-23T05:08:40;10.25;;;6.45;;
73239;SDS011;61452;40.054;4.110;2022-07-23T05:13:44;7.95;;;6.22;;
73239;SDS011;61452;40.054;4.110;2022-07-23T05:18:47;8.88;;;6.88;;
73239;SDS011;61452;40.054;4.110;2022-07-23T05:23:49;7.95;;;6.97;;
73239;SDS011;61452;40.054;4.110;2022-07-23T05:28:52;9.20;;;7.20;;
73239;SDS011;61452;40.054;4.110;2022-07-23T05:33:55;7.82;;;7.13;;
73239;SDS011;61452;40.054;4.110;2022-07-23T05:38:58;9.48;;;7.20;;
73239;SDS011;61452;40.054;4.110;2022-07-23T05:44:04;10.40;;;7.20;;
73239;SDS011;61452;40.054;4.110;2022-07-23T05:49:08;9.00;;;7.80;;
73239;SDS011;61452;40.054;4.110;2022-07-23T05:54:30;8.05;;;7.05;;
73239;SDS011;61452;40.054;4.110;2022-07-23T05:59:32;8.85;;;7.43;;
73239;SDS011;61452;40.054;4.110;2022-07-23T06:04:34;11.35;;;7.53;;
73239;SDS011;61452;40.054;4.110;2022-07-23T06:09:59;9.13;;;8.23;;
73239;SDS011;61452;40.054;4.110;2022-07-23T06:15:03;11.30;;;8.15;;
73239;SDS011;61452;40.054;4.110;2022-07-23T06:20:12;10.18;;;7.80;;
73239;SDS011;61452;40.054;4.110;2022-07-23T06:25:15;11.75;;;8.27;;
73239;SDS011;61452;40.054;4.110;2022-07-23T06:30:20;10.23;;;7.63;;
73239;SDS011;61452;40.054;4.110;2022-07-23T06:35:25;11.10;;;8.68;;
73239;SDS011;61452;40.054;4.110;2022-07-23T06:40:27;11.93;;;8.15;;
73239;SDS011;61452;40.054;4.110;2022-07-23T06:45:30;10.00;;;8.73;;
73239;SDS011;61452;40.054;4.110;2022-07-23T06:55:35;10.07;;;8.05;;
73239;SDS011;61452;40.054;4.110;2022-07-23T07:00:40;12.70;;;8.02;;
73239;SDS011;61452;40.054;4.110;2022-07-23T07:05:42;8.98;;;7.65;;
73239;SDS011;61452;40.054;4.110;2022-07-23T07:10:45;14.07;;;8.52;;
73239;SDS011;61452;40.054;4.110;2022-07-23T07:15:47;11.25;;;7.97;;
73239;SDS011;61452;40.054;4.110;2022-07-23T07:20:50;11.30;;;7.47;;
73239;SDS011;61452;40.054;4.110;2022-07-23T07:25:55;12.38;;;7.50;;
73239;SDS011;61452;40.054;4.110;2022-07-23T07:30:57;8.43;;;7.35;;
73239;SDS011;61452;40.054;4.110;2022-07-23T07:35:59;8.95;;;7.03;;
73239;SDS011;61452;40.054;4.110;2022-07-23T07:41:02;7.60;;;6.80;;
73239;SDS011;61452;40.054;4.110;2022-07-23T07:46:05;8.32;;;6.32;;
73239;SDS011;61452;40.054;4.110;2022-07-23T07:51:11;7.93;;;6.30;;
73239;SDS011;61452;40.054;4.110;2022-07-23T07:56:14;6.90;;;6.18;;
73239;SDS011;61452;40.054;4.110;2022-07-23T08:01:16;6.75;;;5.65;;
73239;SDS011;61452;40.054;4.110;2022-07-23T08:06:19;6.95;;;5.70;;
73239;SDS011;61452;40.054;4.110;2022-07-23T08:11:22;6.85;;;5.50;;
73239;SDS011;61452;40.054;4.110;2022-07-23T08:16:24;6.18;;;5.57;;
73239;SDS011;61452;40.054;4.110;2022-07-23T08:21:26;7.93;;;4.97;;
73239;SDS011;61452;40.054;4.110;2022-07-23T08:26:29;5.95;;;5.32;;
73239;SDS011;61452;40.054;4.110;2022-07-23T08:31:31;5.40;;;4.90;;
73239;SDS011;61452;40.054;4.110;2022-07-23T08:36:34;5.65;;;4.97;;
73239;SDS011;61452;40.054;4.110;2022-07-23T08:41:39;6.00;;;5.00;;
73239;SDS011;61452;40.054;4.110;2022-07-23T08:46:41;4.90;;;4.35;;
73239;SDS011;61452;40.054;4.110;2022-07-23T08:51:46;5.60;;;4.68;;
73239;SDS011;61452;40.054;4.110;2022-07-23T08:56:48;6.38;;;5.03;;
73239;SDS011;61452;40.054;4.110;2022-07-23T09:01:51;5.68;;;4.97;;
73239;SDS011;61452;40.054;4.110;2022-07-23T09:06:54;6.20;;;4.78;;
73239;SDS011;61452;40.054;4.110;2022-07-23T09:12:04;6.40;;;5.43;;
73239;SDS011;61452;40.054;4.110;2022-07-23T09:17:11;6.07;;;5.22;;
73239;SDS011;61452;40.054;4.110;2022-07-23T09:22:18;6.63;;;5.60;;
73239;SDS011;61452;40.054;4.110;2022-07-23T09:33:13;5.85;;;5.25;;
73239;SDS011;61452;40.054;4.110;2022-07-23T09:38:17;5.93;;;5.38;;
73239;SDS011;61452;40.054;4.110;2022-07-23T09:43:27;5.78;;;5.18;;
73239;SDS011;61452;40.054;4.110;2022-07-23T09:53:38;5.57;;;5.07;;
73239;SDS011;61452;40.054;4.110;2022-07-23T09:58:40;6.47;;;5.43;;
73239;SDS011;61452;40.054;4.110;2022-07-23T10:03:52;6.28;;;5.30;;
73239;SDS011;61452;40.054;4.110;2022-07-23T10:09:14;6.45;;;5.82;;
73239;SDS011;61452;40.054;4.110;2022-07-23T10:14:38;6.72;;;5.95;;
73239;SDS011;61452;40.054;4.110;2022-07-23T10:19:43;7.97;;;6.00;;
73239;SDS011;61452;40.054;4.110;2022-07-23T10:35:49;7.75;;;6.00;;
73239;SDS011;61452;40.054;4.110;2022-07-23T10:41:13;7.47;;;6.68;;
73239;SDS011;61452;40.054;4.110;2022-07-23T10:46:25;9.32;;;6.57;;
73239;SDS011;61452;40.054;4.110;2022-07-23T10:51:38;7.68;;;6.53;;
73239;SDS011;61452;40.054;4.110;2022-07-23T10:56:49;8.30;;;6.70;;
73239;SDS011;61452;40.054;4.110;2022-07-23T11:07:22;7.88;;;6.95;;
73239;SDS011;61452;40.054;4.110;2022-07-23T11:17:30;8.23;;;6.47;;
73239;SDS011;61452;40.054;4.110;2022-07-23T11:22:40;7.40;;;6.57;;
73239;SDS011;61452;40.054;4.110;2022-07-23T11:28:08;8.95;;;6.85;;
73239;SDS011;61452;40.054;4.110;2022-07-23T11:33:16;7.95;;;6.90;;
73239;SDS011;61452;40.054;4.110;2022-07-23T11:38:20;7.32;;;6.10;;
73239;SDS011;61452;40.054;4.110;2022-07-23T11:43:24;7.35;;;6.65;;
73239;SDS011;61452;40.054;4.110;2022-07-23T11:53:32;8.30;;;6.85;;
73239;SDS011;61452;40.054;4.110;2022-07-23T11:58:35;7.93;;;6.28;;
73239;SDS011;61452;40.054;4.110;2022-07-23T12:08:50;9.00;;;6.43;;
73239;SDS011;61452;40.054;4.110;2022-07-23T12:13:56;7.43;;;6.68;;
73239;SDS011;61452;40.054;4.110;2022-07-23T12:18:59;7.38;;;6.35;;
73239;SDS011;61452;40.054;4.110;2022-07-23T12:24:06;7.68;;;6.10;;
73239;SDS011;61452;40.054;4.110;2022-07-23T12:29:09;8.65;;;6.50;;
73239;SDS011;61452;40.054;4.110;2022-07-23T12:34:14;7.25;;;6.07;;
73239;SDS011;61452;40.054;4.110;2022-07-23T12:39:35;7.80;;;6.13;;
73239;SDS011;61452;40.054;4.110;2022-07-23T12:44:38;7.70;;;5.45;;
73239;SDS011;61452;40.054;4.110;2022-07-23T12:49:40;8.90;;;6.18;;
73239;SDS011;61452;40.054;4.110;2022-07-23T12:54:42;8.15;;;6.43;;
73239;SDS011;61452;40.054;4.110;2022-07-23T12:59:44;8.55;;;6.82;;
73239;SDS011;61452;40.054;4.110;2022-07-23T13:04:48;6.80;;;6.20;;
73239;SDS011;61452;40.054;4.110;2022-07-23T13:09:50;7.30;;;6.05;;
73239;SDS011;61452;40.054;4.110;2022-07-23T13:14:52;7.63;;;6.30;;
73239;SDS011;61452;40.054;4.110;2022-07-23T13:19:55;9.00;;;6.18;;
73239;SDS011;61452;40.054;4.110;2022-07-23T13:24:57;9.68;;;6.40;;
73239;SDS011;61452;40.054;4.110;2022-07-23T13:30:02;7.00;;;5.93;;
73239;SDS011;61452;40.054;4.110;2022-07-23T13:40:12;7.28;;;6.13;;
73239;SDS011;61452;40.054;4.110;2022-07-23T13:45:18;8.00;;;6.50;;
73239;SDS011;61452;40.054;4.110;2022-07-23T13:50:21;7.50;;;6.53;;
73239;SDS011;61452;40.054;4.110;2022-07-23T13:55:23;8.45;;;6.10;;
73239;SDS011;61452;40.054;4.110;2022-07-23T14:00:28;7.60;;;6.25;;
73239;SDS011;61452;40.054;4.110;2022-07-23T14:05:52;6.78;;;6.07;;
73239;SDS011;61452;40.054;4.110;2022-07-23T14:10:57;7.47;;;6.15;;
73239;SDS011;61452;40.054;4.110;2022-07-23T14:16:01;7.90;;;6.13;;
73239;SDS011;61452;40.054;4.110;2022-07-23T14:26:07;8.18;;;6.22;;
73239;SDS011;61452;40.054;4.110;2022-07-23T14:31:10;8.98;;;6.20;;
73239;SDS011;61452;40.054;4.110;2022-07-23T14:36:22;7.85;;;6.40;;
73239;SDS011;61452;40.054;4.110;2022-07-23T14:41:24;7.03;;;6.20;;
73239;SDS011;61452;40.054;4.110;2022-07-23T14:46:28;7.55;;;6.03;;
73239;SDS011;61452;40.054;4.110;2022-07-23T14:51:31;6.90;;;5.97;;
73239;SDS011;61452;40.054;4.110;2022-07-23T14:56:33;8.07;;;6.43;;
73239;SDS011;61452;40.054;4.110;2022-07-23T15:01:38;7.43;;;6.32;;
73239;SDS011;61452;40.054;4.110;2022-07-23T15:06:41;8.65;;;6.15;;
73239;SDS011;61452;40.054;4.110;2022-07-23T15:16:48;6.88;;;5.47;;
73239;SDS011;61452;40.054;4.110;2022-07-23T15:21:53;6.45;;;5.70;;
73239;SDS011;61452;40.054;4.110;2022-07-23T15:26:55;6.90;;;6.20;;
73239;SDS011;61452;40.054;4.110;2022-07-23T15:31:58;6.50;;;5.90;;
73239;SDS011;61452;40.054;4.110;2022-07-23T15:37:02;7.32;;;5.68;;
73239;SDS011;61452;40.054;4.110;2022-07-23T15:42:14;6.38;;;5.78;;
73239;SDS011;61452;40.054;4.110;2022-07-23T15:47:17;7.13;;;5.70;;
73239;SDS011;61452;40.054;4.110;2022-07-23T15:52:20;7.30;;;5.88;;
73239;SDS011;61452;40.054;4.110;2022-07-23T15:57:22;6.20;;;5.60;;
73239;SDS011;61452;40.054;4.110;2022-07-23T16:02:25;6.93;;;5.80;;
73239;SDS011;61452;40.054;4.110;2022-07-23T16:12:32;6.90;;;5.50;;
73239;SDS011;61452;40.054;4.110;2022-07-23T16:17:35;8.23;;;6.18;;
73239;SDS011;61452;40.054;4.110;2022-07-23T16:22:37;7.28;;;6.47;;
73239;SDS011;61452;40.054;4.110;2022-07-23T16:27:40;7.07;;;6.13;;
73239;SDS011;61452;40.054;4.110;2022-07-23T16:32:43;8.82;;;6.43;;
73239;SDS011;61452;40.054;4.110;2022-07-23T16:42:48;6.30;;;5.70;;
73239;SDS011;61452;40.054;4.110;2022-07-23T16:47:50;8.88;;;5.90;;
73239;SDS011;61452;40.054;4.110;2022-07-23T16:52:53;6.38;;;5.60;;
73239;SDS011;61452;40.054;4.110;2022-07-23T16:57:55;6.65;;;5.30;;
73239;SDS011;61452;40.054;4.110;2022-07-23T17:02:58;6.82;;;5.90;;
73239;SDS011;61452;40.054;4.110;2022-07-23T17:08:07;8.45;;;5.78;;
73239;SDS011;61452;40.054;4.110;2022-07-23T17:13:09;9.10;;;5.32;;
73239;SDS011;61452;40.054;4.110;2022-07-23T17:18:12;8.40;;;4.95;;
73239;SDS011;61452;40.054;4.110;2022-07-23T17:23:14;4.43;;;4.03;;
73239;SDS011;61452;40.054;4.110;2022-07-23T17:28:18;8.20;;;5.10;;
73239;SDS011;61452;40.054;4.110;2022-07-23T17:33:20;7.10;;;4.50;;
73239;SDS011;61452;40.054;4.110;2022-07-23T17:38:23;7.35;;;4.45;;
73239;SDS011;61452;40.054;4.110;2022-07-23T17:43:25;11.23;;;4.63;;
73239;SDS011;61452;40.054;4.110;2022-07-23T17:48:28;10.73;;;5.45;;
73239;SDS011;61452;40.054;4.110;2022-07-23T17:53:30;6.97;;;4.70;;
73239;SDS011;61452;40.054;4.110;2022-07-23T17:58:32;8.43;;;4.85;;
73239;SDS011;61452;40.054;4.110;2022-07-23T18:03:37;7.97;;;5.43;;
73239;SDS011;61452;40.054;4.110;2022-07-23T18:08:41;11.60;;;6.07;;
73239;SDS011;61452;40.054;4.110;2022-07-23T18:13:43;8.98;;;5.70;;
73239;SDS011;61452;40.054;4.110;2022-07-23T18:18:47;8.68;;;5.22;;
73239;SDS011;61452;40.054;4.110;2022-07-23T18:23:49;10.48;;;5.75;;
73239;SDS011;61452;40.054;4.110;2022-07-23T18:28:52;18.55;;;5.65;;
73239;SDS011;61452;40.054;4.110;2022-07-23T18:33:54;12.57;;;5.53;;
73239;SDS011;61452;40.054;4.110;2022-07-23T18:38:57;11.85;;;5.07;;
73239;SDS011;61452;40.054;4.110;2022-07-23T18:44:04;8.65;;;5.07;;
73239;SDS011;61452;40.054;4.110;2022-07-23T18:49:06;9.73;;;4.97;;
73239;SDS011;61452;40.054;4.110;2022-07-23T18:54:10;9.25;;;5.30;;
73239;SDS011;61452;40.054;4.110;2022-07-23T18:59:14;9.10;;;5.22;;
73239;SDS011;61452;40.054;4.110;2022-07-23T19:04:24;10.85;;;5.82;;
73239;SDS011;61452;40.054;4.110;2022-07-23T19:09:26;10.27;;;5.40;;
73239;SDS011;61452;40.054;4.110;2022-07-23T19:14:34;14.80;;;5.88;;
73239;SDS011;61452;40.054;4.110;2022-07-23T19:19:37;13.02;;;6.45;;
73239;SDS011;61452;40.054;4.110;2022-07-23T19:24:39;15.30;;;6.30;;
73239;SDS011;61452;40.054;4.110;2022-07-23T19:29:43;15.10;;;7.05;;
73239;SDS011;61452;40.054;4.110;2022-07-23T19:34:46;16.73;;;5.90;;
73239;SDS011;61452;40.054;4.110;2022-07-23T19:39:48;9.98;;;5.57;;
73239;SDS011;61452;40.054;4.110;2022-07-23T19:44:51;15.07;;;6.25;;
73239;SDS011;61452;40.054;4.110;2022-07-23T19:49:54;8.80;;;5.68;;
73239;SDS011;61452;40.054;4.110;2022-07-23T19:54:57;9.80;;;5.80;;
73239;SDS011;61452;40.054;4.110;2022-07-23T19:59:59;8.32;;;5.60;;
73239;SDS011;61452;40.054;4.110;2022-07-23T20:05:04;8.10;;;5.10;;
73239;SDS011;61452;40.054;4.110;2022-07-23T20:10:08;10.98;;;5.50;;
73239;SDS011;61452;40.054;4.110;2022-07-23T20:15:12;9.20;;;5.63;;
73239;SDS011;61452;40.054;4.110;2022-07-23T20:20:14;8.55;;;5.65;;
73239;SDS011;61452;40.054;4.110;2022-07-23T20:25:16;7.57;;;5.80;;
73239;SDS011;61452;40.054;4.110;2022-07-23T20:30:19;7.78;;;6.35;;
73239;SDS011;61452;40.054;4.110;2022-07-23T20:35:22;6.13;;;5.53;;
73239;SDS011;61452;40.054;4.110;2022-07-23T20:40:25;7.13;;;5.80;;
73239;SDS011;61452;40.054;4.110;2022-07-23T20:45:28;7.10;;;5.57;;
73239;SDS011;61452;40.054;4.110;2022-07-23T20:50:31;8.85;;;6.00;;
73239;SDS011;61452;40.054;4.110;2022-07-23T20:55:33;8.45;;;6.03;;
73239;SDS011;61452;40.054;4.110;2022-07-23T21:00:36;10.35;;;5.35;;
73239;SDS011;61452;40.054;4.110;2022-07-23T21:05:39;8.80;;;5.30;;
73239;SDS011;61452;40.054;4.110;2022-07-23T21:10:42;11.02;;;6.25;;
73239;SDS011;61452;40.054;4.110;2022-07-23T21:15:45;8.57;;;5.30;;
73239;SDS011;61452;40.054;4.110;2022-07-23T21:20:47;7.90;;;5.97;;
73239;SDS011;61452;40.054;4.110;2022-07-23T21:31:32;11.75;;;8.18;;
73239;SDS011;61452;40.054;4.110;2022-07-23T21:36:35;10.05;;;7.53;;
73239;SDS011;61452;40.054;4.110;2022-07-23T21:41:37;8.23;;;6.55;;
73239;SDS011;61452;40.054;4.110;2022-07-23T21:46:39;8.15;;;6.85;;
73239;SDS011;61452;40.054;4.110;2022-07-23T21:51:42;21.50;;;8.70;;
73239;SDS011;61452;40.054;4.110;2022-07-23T21:56:46;27.95;;;9.48;;
73239;SDS011;61452;40.054;4.110;2022-07-23T22:01:49;28.92;;;10.23;;
73239;SDS011;61452;40.054;4.110;2022-07-23T22:11:53;22.73;;;8.25;;
73239;SDS011;61452;40.054;4.110;2022-07-23T22:16:56;18.50;;;8.80;;
73239;SDS011;61452;40.054;4.110;2022-07-23T22:21:58;21.98;;;9.13;;
73239;SDS011;61452;40.054;4.110;2022-07-23T22:27:00;14.25;;;7.70;;
73239;SDS011;61452;40.054;4.110;2022-07-23T22:32:03;13.68;;;7.40;;
73239;SDS011;61452;40.054;4.110;2022-07-23T22:37:06;12.65;;;7.13;;
73239;SDS011;61452;40.054;4.110;2022-07-23T22:47:11;8.50;;;5.85;;
73239;SDS011;61452;40.054;4.110;2022-07-23T22:52:14;9.25;;;6.45;;
73239;SDS011;61452;40.054;4.110;2022-07-23T22:57:16;8.38;;;6.28;;
73239;SDS011;61452;40.054;4.110;2022-07-23T23:02:19;9.27;;;6.43;;
73239;SDS011;61452;40.054;4.110;2022-07-23T23:12:33;23.45;;;9.00;;
73239;SDS011;61452;40.054;4.110;2022-07-23T23:17:57;20.10;;;8.55;;
73239;SDS011;61452;40.054;4.110;2022-07-23T23:23:01;17.52;;;7.10;;
73239;SDS011;61452;40.054;4.110;2022-07-23T23:28:29;15.20;;;6.95;;
73239;SDS011;61452;40.054;4.110;2022-07-23T23:33:44;10.98;;;7.07;;
73239;SDS011;61452;40.054;4.110;2022-07-23T23:39:14;31.83;;;10.35;;
73239;SDS011;61452;40.054;4.110;2022-07-23T23:44:28;32.25;;;10.73;;
73239;SDS011;61452;40.054;4.110;2022-07-23T23:49:57;25.02;;;9.65;;
73239;SDS011;61452;40.054;4.110;2022-07-23T23:55:12;19.13;;;8.57;;
